createdAt,value
2019-05-23T00:01:04.718Z,5.83
2019-05-23T00:04:15.574Z,5.33
2019-05-23T00:07:11.138Z,4.83
2019-05-23T00:10:03.847Z,5.17
2019-05-23T00:12:48.773Z,4.87
2019-05-23T00:15:29.226Z,5.20
2019-05-23T00:18:01.671Z,5.23
2019-05-23T00:20:34.513Z,6.10
2019-05-23T00:23:07.135Z,5.53
2019-05-23T00:25:40.207Z,5.97
2019-05-23T00:28:11.545Z,6.80
2019-05-23T00:30:58.042Z,6.63
2019-05-23T00:33:30.702Z,4.93
2019-05-23T00:36:02.267Z,6.13
2019-05-23T00:38:35.339Z,5.13
2019-05-23T00:41:07.239Z,5.17
2019-05-23T00:43:39.433Z,4.50
2019-05-23T00:46:11.352Z,5.10
2019-05-23T00:48:42.835Z,5.23
2019-05-23T00:51:16.006Z,6.90
2019-05-23T00:53:47.697Z,5.73
2019-05-23T00:56:20.672Z,3.87
2019-05-23T00:58:52.147Z,5.70
2019-05-23T01:01:25.121Z,5.03
2019-05-23T01:03:56.718Z,5.50
2019-05-23T01:06:27.926Z,6.50
2019-05-23T01:09:00.019Z,5.03
2019-05-23T01:11:31.670Z,4.77
2019-05-23T01:14:03.745Z,5.23
2019-05-23T01:16:36.708Z,6.37
2019-05-23T01:19:09.642Z,6.30
2019-05-23T01:21:58.762Z,4.40
2019-05-23T01:24:35.496Z,5.33
2019-05-23T01:27:07.398Z,4.97
2019-05-23T01:29:42.238Z,4.50
2019-05-23T01:32:42.358Z,5.97
2019-05-23T01:35:17.390Z,5.27
2019-05-23T01:37:49.402Z,4.97
2019-05-23T01:40:21.833Z,5.17
2019-05-23T01:42:53.335Z,5.70
2019-05-23T01:45:26.812Z,5.53
2019-05-23T01:47:59.203Z,6.63
2019-05-23T01:50:30.561Z,5.30
2019-05-23T01:53:02.916Z,5.20
2019-05-23T01:55:34.492Z,5.57
2019-05-23T01:58:06.811Z,5.13
2019-05-23T02:00:40.042Z,6.13
2019-05-23T02:03:11.590Z,6.33
2019-05-23T02:05:42.941Z,5.80
2019-05-23T02:08:15.616Z,5.60
2019-05-23T02:10:47.015Z,7.77
2019-05-23T02:13:18.356Z,6.00
2019-05-23T02:15:49.900Z,5.30
2019-05-23T02:18:23.708Z,6.87
2019-05-23T02:20:55.456Z,5.73
2019-05-23T02:23:27.246Z,6.57
2019-05-23T02:25:59.670Z,7.33
2019-05-23T02:28:31.558Z,7.07
2019-05-23T02:31:02.844Z,5.97
2019-05-23T02:33:34.558Z,7.00
2019-05-23T02:36:06.795Z,5.90
2019-05-23T02:39:01.477Z,6.77
2019-05-23T02:41:43.988Z,7.83
2019-05-23T02:44:17.804Z,7.20
2019-05-23T02:47:06.594Z,7.13
2019-05-23T02:49:38.263Z,6.70
2019-05-23T02:52:24.051Z,6.80
2019-05-23T02:54:56.467Z,7.43
2019-05-23T02:57:30.348Z,7.47
2019-05-23T03:00:16.878Z,8.33
2019-05-23T03:02:54.691Z,8.10
2019-05-23T03:05:27.311Z,8.43
2019-05-23T03:08:01.802Z,7.40
2019-05-23T03:10:57.095Z,7.40
2019-05-23T03:13:32.759Z,8.27
2019-05-23T03:16:06.067Z,7.83
2019-05-23T03:18:42.849Z,8.77
2019-05-23T03:21:15.236Z,7.40
2019-05-23T03:23:49.690Z,9.10
2019-05-23T03:27:01.487Z,7.90
2019-05-23T03:29:34.562Z,8.13
2019-05-23T03:32:18.254Z,8.57
2019-05-23T03:34:54.065Z,7.43
2019-05-23T03:37:25.395Z,7.87
2019-05-23T03:39:57.391Z,8.10
2019-05-23T03:42:28.938Z,7.63
2019-05-23T03:45:00.601Z,8.40
2019-05-23T03:47:32.718Z,9.30
2019-05-23T03:50:05.731Z,8.77
2019-05-23T03:52:37.713Z,11.17
2019-05-23T03:55:09.084Z,8.50
2019-05-23T03:57:42.044Z,10.53
2019-05-23T04:00:17.694Z,9.17
2019-05-23T04:02:51.131Z,9.77
2019-05-23T04:05:22.963Z,10.10
2019-05-23T04:07:54.723Z,9.67
2019-05-23T04:10:26.139Z,9.93
2019-05-23T04:12:57.488Z,12.70
2019-05-23T04:15:29.665Z,8.30
2019-05-23T04:18:01.334Z,8.93
2019-05-23T04:20:32.839Z,9.90
2019-05-23T04:23:05.882Z,8.90
2019-05-23T04:25:37.315Z,9.43
2019-05-23T04:28:08.818Z,9.20
2019-05-23T04:30:40.386Z,8.37
2019-05-23T04:33:11.567Z,9.00
2019-05-23T04:35:42.994Z,9.17
2019-05-23T04:38:15.177Z,8.40
2019-05-23T04:40:46.829Z,8.60
2019-05-23T04:43:18.210Z,8.90
2019-05-23T04:45:50.319Z,8.40
2019-05-23T04:48:22.571Z,8.70
2019-05-23T04:50:53.857Z,8.00
2019-05-23T04:53:25.159Z,7.47
2019-05-23T04:55:56.691Z,7.90
2019-05-23T04:58:28.379Z,7.93
2019-05-23T05:01:01.497Z,8.33
2019-05-23T05:03:34.062Z,10.27
2019-05-23T05:06:06.342Z,6.83
2019-05-23T05:08:39.436Z,7.60
2019-05-23T05:11:10.730Z,6.43
2019-05-23T05:13:42.584Z,6.80
2019-05-23T05:16:16.653Z,6.57
2019-05-23T05:18:48.434Z,6.87
2019-05-23T05:21:19.652Z,5.70
2019-05-23T05:23:51.932Z,5.93
2019-05-23T05:26:24.335Z,5.77
2019-05-23T05:28:59.308Z,6.30
2019-05-23T05:31:30.881Z,5.97
2019-05-23T05:34:02.130Z,5.63
2019-05-23T05:36:33.936Z,5.87
2019-05-23T05:39:08.230Z,6.00
2019-05-23T05:41:39.672Z,5.13
2019-05-23T05:44:11.738Z,5.30
2019-05-23T05:46:43.901Z,4.63
2019-05-23T05:49:16.455Z,6.47
2019-05-23T05:51:47.798Z,6.40
2019-05-23T05:54:19.274Z,7.60
2019-05-23T05:56:50.647Z,7.30
2019-05-23T05:59:21.979Z,7.40
2019-05-23T06:01:53.431Z,8.13
2019-05-23T06:04:24.643Z,8.47
2019-05-23T06:07:15.332Z,8.43
2019-05-23T06:09:46.914Z,9.97
2019-05-23T06:12:18.504Z,9.43
2019-05-23T06:14:49.817Z,8.43
2019-05-23T06:17:21.755Z,9.60
2019-05-23T06:19:53.396Z,9.57
2019-05-23T06:22:25.945Z,9.30
2019-05-23T06:24:58.266Z,10.03
2019-05-23T06:27:30.446Z,9.93
2019-05-23T06:30:02.586Z,10.10
2019-05-23T06:32:35.821Z,9.73
2019-05-23T06:35:08.164Z,9.93
2019-05-23T06:37:39.904Z,9.07
2019-05-23T06:40:12.616Z,8.63
2019-05-23T06:42:44.517Z,7.77
2019-05-23T06:45:16.467Z,7.03
2019-05-23T06:47:47.837Z,7.17
2019-05-23T06:50:21.521Z,7.80
2019-05-23T06:52:53.309Z,6.60
2019-05-23T06:55:24.558Z,6.17
2019-05-23T06:57:56.039Z,6.83
2019-05-23T07:00:29.723Z,6.03
2019-05-23T07:03:00.952Z,6.10
2019-05-23T07:05:37.009Z,6.17
2019-05-23T07:08:12.282Z,6.43
2019-05-23T07:10:49.355Z,5.70
2019-05-23T07:13:32.279Z,5.90
2019-05-23T07:16:04.915Z,5.77
2019-05-23T07:18:36.257Z,5.77
2019-05-23T07:21:09.904Z,6.80
2019-05-23T07:23:41.161Z,6.53
2019-05-23T07:26:14.523Z,5.97
2019-05-23T07:28:47.499Z,6.87
2019-05-23T07:31:19.383Z,6.87
2019-05-23T07:34:01.876Z,9.47
2019-05-23T07:36:26.568Z,7.87
2019-05-23T07:38:59.157Z,7.67
2019-05-23T07:41:31.839Z,8.40
2019-05-23T07:44:05.835Z,8.40
2019-05-23T07:46:37.861Z,6.63
2019-05-23T07:49:10.298Z,7.17
2019-05-23T07:51:42.301Z,7.80
2019-05-23T07:54:30.050Z,8.27
2019-05-23T07:57:02.094Z,9.47
2019-05-23T07:59:34.375Z,8.60
2019-05-23T08:02:15.917Z,8.20
2019-05-23T08:04:47.507Z,8.23
2019-05-23T08:07:19.537Z,7.10
2019-05-23T08:09:51.011Z,8.47
2019-05-23T08:12:23.076Z,7.17
2019-05-23T08:14:54.640Z,7.67
2019-05-23T08:17:26.757Z,7.57
2019-05-23T08:19:58.220Z,6.63
2019-05-23T08:22:30.565Z,7.80
2019-05-23T08:25:02.309Z,6.70
2019-05-23T08:27:34.352Z,7.47
2019-05-23T08:30:07.715Z,8.43
2019-05-23T08:32:39.494Z,7.60
2019-05-23T08:35:15.973Z,8.23
2019-05-23T08:37:44.347Z,10.63
2019-05-23T08:40:19.256Z,7.23
2019-05-23T08:42:51.750Z,8.83
2019-05-23T08:45:23.241Z,7.90
2019-05-23T08:47:55.310Z,8.57
2019-05-23T08:50:28.499Z,8.50
2019-05-23T08:53:01.064Z,9.30
2019-05-23T08:55:33.673Z,9.53
2019-05-23T08:58:06.098Z,9.30
2019-05-23T09:00:39.854Z,10.27
2019-05-23T09:03:11.642Z,9.47
2019-05-23T09:05:45.298Z,10.53
2019-05-23T09:08:18.563Z,10.77
2019-05-23T09:10:50.989Z,14.43
2019-05-23T09:13:23.466Z,14.30
2019-05-23T09:15:55.665Z,11.40
2019-05-23T09:18:29.135Z,9.93
2019-05-23T09:21:01.813Z,9.43
2019-05-23T09:23:33.858Z,11.33
2019-05-23T09:26:06.261Z,10.23
2019-05-23T09:28:37.869Z,10.20
2019-05-23T09:31:10.678Z,9.20
2019-05-23T09:33:42.774Z,11.10
2019-05-23T09:36:14.147Z,10.03
2019-05-23T09:38:46.495Z,9.17
2019-05-23T09:41:18.417Z,8.73
2019-05-23T09:43:50.568Z,9.50
2019-05-23T09:46:22.694Z,9.23
2019-05-23T09:48:54.619Z,8.57
2019-05-23T09:51:26.980Z,8.90
2019-05-23T09:53:59.219Z,9.97
2019-05-23T09:56:31.648Z,10.70
2019-05-23T09:59:03.134Z,9.40
2019-05-23T10:01:35.130Z,9.70
2019-05-23T10:04:08.168Z,9.03
2019-05-23T10:06:40.032Z,9.77
2019-05-23T10:09:11.573Z,14.03
2019-05-23T10:11:43.763Z,11.10
2019-05-23T10:14:20.677Z,8.97
2019-05-23T10:16:52.014Z,7.90
2019-05-23T10:19:23.646Z,8.53
2019-05-23T10:21:55.305Z,9.43
2019-05-23T10:24:26.887Z,8.20
2019-05-23T10:26:58.210Z,9.40
2019-05-23T10:29:29.553Z,11.23
2019-05-23T10:32:00.747Z,9.57
2019-05-23T10:34:31.941Z,8.67
2019-05-23T10:37:03.804Z,8.03
2019-05-23T10:39:35.652Z,7.20
2019-05-23T10:42:06.915Z,8.20
2019-05-23T10:44:38.118Z,7.67
2019-05-23T10:47:09.233Z,10.07
2019-05-23T10:49:40.744Z,7.57
2019-05-23T10:52:12.944Z,7.43
2019-05-23T10:54:44.163Z,7.30
2019-05-23T10:57:15.574Z,7.97
2019-05-23T10:59:46.866Z,7.40
2019-05-23T11:02:18.822Z,6.50
2019-05-23T11:04:51.138Z,6.47
2019-05-23T11:07:22.616Z,8.10
2019-05-23T11:09:54.269Z,6.00
2019-05-23T11:12:25.684Z,6.27
2019-05-23T11:14:56.884Z,6.50
2019-05-23T11:17:29.238Z,7.40
2019-05-23T11:20:00.760Z,9.93
2019-05-23T11:22:32.061Z,7.60
2019-05-23T11:25:05.376Z,9.23
2019-05-23T11:27:36.987Z,5.93
2019-05-23T11:30:09.597Z,5.40
2019-05-23T11:32:40.989Z,5.10
2019-05-23T11:35:12.656Z,7.67
2019-05-23T11:37:43.933Z,6.50
2019-05-23T11:40:15.955Z,5.27
2019-05-23T11:42:47.277Z,7.87
2019-05-23T11:45:18.743Z,14.20
2019-05-23T11:47:50.201Z,16.40
2019-05-23T11:50:21.740Z,15.80
2019-05-23T11:52:55.943Z,8.57
2019-05-23T11:55:26.004Z,10.77
2019-05-23T11:57:57.222Z,9.97
2019-05-23T12:01:20.585Z,8.43
2019-05-23T12:03:46.409Z,6.80
2019-05-23T12:06:18.161Z,5.93
2019-05-23T12:08:49.500Z,4.90
2019-05-23T12:11:20.840Z,4.40
2019-05-23T12:13:52.225Z,6.00
2019-05-23T12:16:24.082Z,7.87
2019-05-23T12:18:55.845Z,6.83
2019-05-23T12:21:27.275Z,7.50
2019-05-23T12:23:59.010Z,5.90
2019-05-23T12:26:30.582Z,4.97
2019-05-23T12:29:02.137Z,5.60
2019-05-23T12:31:33.682Z,5.27
2019-05-23T12:34:05.490Z,4.90
2019-05-23T12:36:38.446Z,5.77
2019-05-23T12:39:11.205Z,6.60
2019-05-23T12:41:42.909Z,5.30
2019-05-23T12:44:17.459Z,4.50
2019-05-23T12:46:48.294Z,5.00
2019-05-23T12:49:27.810Z,5.03
2019-05-23T12:51:59.185Z,6.63
2019-05-23T12:54:31.308Z,4.40
2019-05-23T12:57:02.899Z,7.87
2019-05-23T12:59:35.441Z,4.07
2019-05-23T13:02:10.644Z,4.30
2019-05-23T13:04:42.309Z,3.83
2019-05-23T13:07:13.947Z,7.03
2019-05-23T13:09:45.546Z,3.73
2019-05-23T13:12:17.049Z,9.57
2019-05-23T13:14:48.383Z,10.50
2019-05-23T13:17:19.695Z,4.70
2019-05-23T13:19:51.031Z,3.10
2019-05-23T13:22:22.902Z,3.00
2019-05-23T13:24:54.342Z,4.60
2019-05-23T13:27:26.389Z,2.87
2019-05-23T13:29:57.750Z,4.80
2019-05-23T13:32:29.214Z,2.80
2019-05-23T13:35:00.748Z,3.33
2019-05-23T13:37:32.296Z,2.27
2019-05-23T13:40:03.833Z,3.10
2019-05-23T13:42:35.462Z,2.57
2019-05-23T13:45:07.282Z,4.10
2019-05-23T13:47:38.579Z,2.97
2019-05-23T13:50:10.788Z,2.70
2019-05-23T13:52:42.691Z,3.73
2019-05-23T13:55:14.545Z,3.43
2019-05-23T13:57:45.889Z,3.80
2019-05-23T14:00:18.371Z,2.73
2019-05-23T14:02:50.020Z,2.67
2019-05-23T14:05:21.811Z,3.23
2019-05-23T14:08:10.402Z,3.93
2019-05-23T14:10:27.260Z,6.13
2019-05-23T14:12:58.984Z,4.57
2019-05-23T14:15:38.823Z,3.80
2019-05-23T14:18:12.130Z,2.90
2019-05-23T14:20:44.351Z,4.40
2019-05-23T14:23:34.698Z,9.60
2019-05-23T14:26:06.531Z,2.90
2019-05-23T14:28:38.370Z,3.03
2019-05-23T14:31:20.218Z,3.50
2019-05-23T14:34:09.200Z,4.57
2019-05-23T14:37:09.543Z,2.80
2019-05-23T14:39:46.486Z,3.23
2019-05-23T14:42:43.143Z,3.13
2019-05-23T14:45:37.393Z,2.60
2019-05-23T14:48:18.962Z,2.50
2019-05-23T14:51:14.158Z,4.73
2019-05-23T14:53:49.072Z,5.10
2019-05-23T14:56:22.343Z,3.97
2019-05-23T14:58:54.262Z,2.93
2019-05-23T15:01:27.353Z,6.07
2019-05-23T15:03:58.848Z,7.33
2019-05-23T15:06:31.042Z,2.50
2019-05-23T15:09:02.840Z,4.30
2019-05-23T15:11:35.884Z,3.50
2019-05-23T15:14:07.564Z,4.53
2019-05-23T15:16:39.213Z,3.20
2019-05-23T15:19:11.270Z,4.90
2019-05-23T15:21:43.147Z,3.50
2019-05-23T15:24:14.872Z,3.77
2019-05-23T15:26:46.789Z,3.73
2019-05-23T15:29:18.097Z,3.73
2019-05-23T15:32:01.659Z,3.57
2019-05-23T15:34:23.135Z,2.50
2019-05-23T15:36:54.375Z,2.87
2019-05-23T15:39:25.924Z,3.27
2019-05-23T15:41:57.272Z,3.07
2019-05-23T15:44:30.444Z,3.10
2019-05-23T15:47:02.759Z,3.70
2019-05-23T15:49:34.266Z,3.23
2019-05-23T15:52:15.100Z,2.87
2019-05-23T15:54:54.070Z,2.53
2019-05-23T15:57:38.545Z,3.90
2019-05-23T16:00:32.359Z,5.73
2019-05-23T16:03:21.335Z,5.07
2019-05-23T16:05:53.253Z,4.27
2019-05-23T16:08:25.306Z,3.37
2019-05-23T16:10:56.937Z,4.20
2019-05-23T16:13:29.424Z,2.40
2019-05-23T16:16:00.940Z,2.53
2019-05-23T16:18:35.461Z,4.27
2019-05-23T16:21:07.753Z,2.87
2019-05-23T16:23:39.083Z,3.23
2019-05-23T16:26:11.683Z,2.53
2019-05-23T16:28:43.253Z,3.07
2019-05-23T16:31:14.821Z,4.50
2019-05-23T16:33:47.176Z,4.20
2019-05-23T16:36:19.058Z,3.27
2019-05-23T16:38:50.650Z,3.63
2019-05-23T16:41:22.180Z,6.77
2019-05-23T16:43:53.435Z,2.30
2019-05-23T16:46:27.010Z,2.87
2019-05-23T16:48:58.536Z,3.43
2019-05-23T16:51:29.799Z,3.10
2019-05-23T16:54:03.312Z,2.83
2019-05-23T16:56:53.662Z,3.37
2019-05-23T16:59:34.870Z,3.23
2019-05-23T17:02:25.484Z,3.37
2019-05-23T17:05:10.366Z,3.03
2019-05-23T17:08:04.892Z,3.17
2019-05-23T17:10:44.225Z,2.90
2019-05-23T17:13:44.992Z,3.37
2019-05-23T17:16:35.662Z,3.13
2019-05-23T17:19:12.825Z,3.37
2019-05-23T17:22:03.435Z,3.13
2019-05-23T17:25:00.841Z,3.73
2019-05-23T17:28:04.592Z,4.20
2019-05-23T17:30:56.972Z,5.27
2019-05-23T17:33:29.342Z,4.43
2019-05-23T17:36:01.334Z,5.70
2019-05-23T17:38:33.618Z,4.10
2019-05-23T17:41:07.076Z,3.37
2019-05-23T17:43:40.133Z,3.70
2019-05-23T17:46:13.849Z,3.20
2019-05-23T17:48:47.395Z,5.00
2019-05-23T17:51:21.638Z,3.13
2019-05-23T17:53:54.155Z,3.47
2019-05-23T17:56:27.319Z,3.33
2019-05-23T17:59:01.844Z,6.00
2019-05-23T18:01:35.869Z,4.17
2019-05-23T18:04:08.547Z,4.07
2019-05-23T18:06:41.282Z,5.60
2019-05-23T18:09:15.666Z,4.50
2019-05-23T18:11:48.042Z,4.50
2019-05-23T18:14:20.918Z,5.40
2019-05-23T18:16:56.648Z,6.97
2019-05-23T18:19:30.546Z,5.77
2019-05-23T18:22:06.017Z,5.97
2019-05-23T18:24:39.569Z,5.77
2019-05-23T18:27:14.208Z,5.80
2019-05-23T18:29:47.017Z,5.80
2019-05-23T18:32:24.649Z,5.10
2019-05-23T18:34:57.192Z,7.57
2019-05-23T18:37:31.597Z,5.00
2019-05-23T18:40:06.647Z,4.93
2019-05-23T18:42:39.719Z,5.83
2019-05-23T18:45:12.437Z,6.87
2019-05-23T18:47:45.550Z,4.80
2019-05-23T18:50:20.211Z,5.77
2019-05-23T18:52:53.242Z,7.53
2019-05-23T18:55:26.179Z,5.10
2019-05-23T18:57:59.610Z,7.27
2019-05-23T19:01:04.692Z,5.37
2019-05-23T19:03:37.969Z,10.83
2019-05-23T19:06:11.193Z,6.33
2019-05-23T19:08:44.084Z,5.50
2019-05-23T19:11:21.242Z,6.37
2019-05-23T19:13:53.175Z,7.03
2019-05-23T19:16:27.672Z,5.00
2019-05-23T19:19:01.609Z,6.10
2019-05-23T19:21:35.146Z,5.50
2019-05-23T19:24:10.796Z,6.30
2019-05-23T19:26:44.062Z,6.47
2019-05-23T19:29:19.435Z,6.33
2019-05-23T19:31:53.497Z,5.47
2019-05-23T19:34:26.142Z,6.03
2019-05-23T19:36:59.890Z,4.70
2019-05-23T19:39:33.687Z,5.70
2019-05-23T19:42:06.583Z,5.97
2019-05-23T19:44:39.252Z,6.27
2019-05-23T19:47:12.372Z,4.67
2019-05-23T19:49:46.173Z,5.20
2019-05-23T19:52:23.200Z,5.40
2019-05-23T19:54:55.203Z,4.93
2019-05-23T19:57:30.948Z,5.23
2019-05-23T20:00:02.403Z,5.83
2019-05-23T20:02:54.647Z,6.47
2019-05-23T20:05:35.558Z,7.17
2019-05-23T20:08:07.751Z,8.47
2019-05-23T20:10:40.358Z,7.33
2019-05-23T20:13:13.600Z,7.37
2019-05-23T20:15:46.943Z,6.67
2019-05-23T20:18:19.706Z,6.63
2019-05-23T20:20:52.138Z,8.57
2019-05-23T20:23:24.631Z,6.47
2019-05-23T20:25:56.486Z,6.50
2019-05-23T20:28:30.018Z,6.53
2019-05-23T20:31:03.669Z,6.87
2019-05-23T20:33:36.425Z,8.47
2019-05-23T20:36:13.008Z,7.20
2019-05-23T20:38:47.259Z,7.17
2019-05-23T20:41:19.151Z,7.73
2019-05-23T20:43:51.041Z,6.87
2019-05-23T20:46:24.278Z,6.23
2019-05-23T20:48:55.943Z,7.13
2019-05-23T20:51:27.916Z,7.53
2019-05-23T20:54:01.574Z,6.40
2019-05-23T20:56:32.982Z,6.43
2019-05-23T20:59:06.045Z,6.53
2019-05-23T21:01:40.766Z,6.30
2019-05-23T21:04:13.670Z,8.43
2019-05-23T21:06:46.631Z,6.83
2019-05-23T21:09:19.267Z,6.17
2019-05-23T21:11:52.399Z,6.97
2019-05-23T21:14:25.455Z,6.13
2019-05-23T21:16:57.537Z,6.60
2019-05-23T21:19:29.431Z,5.90
2019-05-23T21:22:01.271Z,6.80
2019-05-23T21:24:34.452Z,6.77
2019-05-23T21:27:06.558Z,6.80
2019-05-23T21:29:40.669Z,7.53
2019-05-23T21:32:12.941Z,6.97
2019-05-23T21:34:44.981Z,8.53
2019-05-23T21:37:17.115Z,7.17
2019-05-23T21:39:51.674Z,8.83
2019-05-23T21:42:24.772Z,9.03
2019-05-23T21:44:57.156Z,8.40
2019-05-23T21:47:28.667Z,10.63
2019-05-23T21:50:00.392Z,9.20
2019-05-23T21:52:31.787Z,9.17
2019-05-23T21:55:07.407Z,8.07
2019-05-23T21:57:39.654Z,8.67
2019-05-23T22:00:13.854Z,8.77
2019-05-23T22:02:47.057Z,10.53
2019-05-23T22:05:19.766Z,10.37
2019-05-23T22:07:51.212Z,10.13
2019-05-23T22:10:23.050Z,9.13
2019-05-23T22:13:03.817Z,7.67
2019-05-23T22:15:38.038Z,9.17
2019-05-23T22:18:09.588Z,8.53
2019-05-23T22:20:41.099Z,8.60
2019-05-23T22:23:12.737Z,8.50
2019-05-23T22:25:44.102Z,7.83
2019-05-23T22:28:15.675Z,11.20
2019-05-23T22:30:48.285Z,7.40
2019-05-23T22:33:21.512Z,7.67
2019-05-23T22:35:54.944Z,7.47
2019-05-23T22:38:26.409Z,7.80
2019-05-23T22:40:57.795Z,10.13
2019-05-23T22:43:29.268Z,9.10
2019-05-23T22:46:00.634Z,8.20
2019-05-23T22:48:32.122Z,8.90
2019-05-23T22:51:03.277Z,8.43
2019-05-23T22:53:34.399Z,9.20
2019-05-23T22:56:05.846Z,8.03
2019-05-23T22:58:37.001Z,7.70
2019-05-23T23:01:08.503Z,7.67
2019-05-23T23:03:39.694Z,8.97
2019-05-23T23:06:11.263Z,7.73
2019-05-23T23:08:42.469Z,12.10
2019-05-23T23:11:13.658Z,7.07
2019-05-23T23:13:45.880Z,7.73
2019-05-23T23:16:17.095Z,9.83
2019-05-23T23:18:48.652Z,8.20
2019-05-23T23:21:20.524Z,7.10
2019-05-23T23:23:51.803Z,9.10
2019-05-23T23:26:22.936Z,8.83
2019-05-23T23:28:54.129Z,7.17
2019-05-23T23:31:25.397Z,7.03
2019-05-23T23:33:56.463Z,7.40
2019-05-23T23:36:27.684Z,7.60
2019-05-23T23:38:58.758Z,7.30
2019-05-23T23:41:30.484Z,9.50
2019-05-23T23:44:01.839Z,7.97
2019-05-23T23:46:50.586Z,7.60
2019-05-23T23:49:39.440Z,7.50
2019-05-23T23:52:28.004Z,8.73
2019-05-23T23:55:16.988Z,12.83
2019-05-23T23:57:59.538Z,7.33
